createdAt,value
2019-03-02T00:01:30.096Z,7.56
2019-03-02T00:03:57.534Z,7.75
2019-03-02T00:06:24.966Z,7.51
2019-03-02T00:08:52.729Z,7.89
2019-03-02T00:11:20.675Z,7.82
2019-03-02T00:13:47.623Z,7.68
2019-03-02T00:16:15.047Z,7.79
2019-03-02T00:18:42.484Z,7.60
2019-03-02T00:21:09.933Z,7.72
2019-03-02T00:23:39.444Z,7.64
2019-03-02T00:26:06.217Z,7.39
2019-03-02T00:28:32.727Z,7.53
2019-03-02T00:30:59.950Z,7.35
2019-03-02T00:33:27.384Z,7.55
2019-03-02T00:35:54.799Z,7.79
2019-03-02T00:38:22.246Z,7.60
2019-03-02T00:40:49.694Z,7.80
2019-03-02T00:43:17.122Z,7.43
2019-03-02T00:45:45.979Z,7.16
2019-03-02T00:48:12.469Z,7.22
2019-03-02T00:50:39.519Z,6.85
2019-03-02T00:53:06.957Z,6.84
2019-03-02T00:55:34.399Z,7.33
2019-03-02T00:58:01.805Z,7.36
2019-03-02T01:00:29.326Z,7.27
2019-03-02T01:02:56.771Z,7.49
2019-03-02T01:05:24.203Z,7.39
2019-03-02T01:07:51.659Z,7.15
2019-03-02T01:10:22.623Z,6.90
2019-03-02T01:12:46.543Z,7.12
2019-03-02T01:15:14.712Z,6.94
2019-03-02T01:17:42.171Z,7.24
2019-03-02T01:20:09.583Z,6.80
2019-03-02T01:22:37.006Z,6.78
2019-03-02T01:25:04.483Z,6.45
2019-03-02T01:27:35.013Z,6.74
2019-03-02T01:29:59.362Z,6.43
2019-03-02T01:32:26.797Z,6.62
2019-03-02T01:34:54.240Z,6.69
2019-03-02T01:37:21.670Z,6.76
2019-03-02T01:39:49.120Z,6.56
2019-03-02T01:42:16.547Z,6.56
2019-03-02T01:44:43.988Z,6.45
2019-03-02T01:47:12.475Z,6.48
2019-03-02T01:49:38.948Z,6.90
2019-03-02T01:52:06.377Z,6.62
2019-03-02T01:54:33.811Z,7.05
2019-03-02T01:57:02.409Z,6.57
2019-03-02T01:59:29.931Z,6.53
2019-03-02T02:02:00.139Z,6.46
2019-03-02T02:04:24.837Z,6.84
2019-03-02T02:06:52.271Z,6.55
2019-03-02T02:09:19.708Z,6.48
2019-03-02T02:11:49.796Z,6.62
2019-03-02T02:14:14.996Z,6.40
2019-03-02T02:16:42.767Z,6.56
2019-03-02T02:19:10.184Z,6.79
2019-03-02T02:21:37.614Z,6.74
2019-03-02T02:24:05.111Z,6.64
2019-03-02T02:26:32.569Z,6.73
2019-03-02T02:29:00.000Z,6.98
2019-03-02T02:31:27.470Z,6.44
2019-03-02T02:33:54.930Z,6.74
2019-03-02T02:36:22.349Z,6.58
2019-03-02T02:38:54.094Z,6.55
2019-03-02T02:41:22.099Z,6.58
2019-03-02T02:43:44.739Z,6.49
2019-03-02T02:46:12.210Z,6.44
2019-03-02T02:48:39.657Z,6.42
2019-03-02T02:51:10.238Z,6.57
2019-03-02T02:53:34.538Z,6.41
2019-03-02T02:56:02.626Z,6.67
2019-03-02T02:58:30.058Z,6.79
2019-03-02T03:00:57.511Z,6.66
2019-03-02T03:03:24.968Z,6.64
2019-03-02T03:05:54.095Z,7.14
2019-03-02T03:08:19.874Z,7.33
2019-03-02T03:10:47.331Z,7.31
2019-03-02T03:13:14.760Z,7.49
2019-03-02T03:15:42.202Z,7.70
2019-03-02T03:18:12.542Z,7.61
2019-03-02T03:20:37.124Z,7.59
2019-03-02T03:23:04.622Z,7.67
2019-03-02T03:25:32.078Z,7.31
2019-03-02T03:27:59.529Z,7.72
2019-03-02T03:30:35.333Z,7.84
2019-03-02T03:32:58.962Z,7.90
2019-03-02T03:35:21.946Z,8.06
2019-03-02T03:37:51.283Z,7.98
2019-03-02T03:40:20.138Z,8.01
2019-03-02T03:42:44.368Z,8.13
2019-03-02T03:45:12.520Z,7.58
2019-03-02T03:47:40.485Z,7.74
2019-03-02T03:50:09.279Z,7.80
2019-03-02T03:52:34.926Z,7.60
2019-03-02T03:55:02.372Z,7.67
2019-03-02T03:57:29.821Z,7.97
2019-03-02T03:59:58.821Z,7.25
2019-03-02T04:02:26.142Z,7.70
2019-03-02T04:04:54.149Z,7.75
2019-03-02T04:07:21.799Z,7.75
2019-03-02T04:09:49.217Z,7.32
2019-03-02T04:12:19.917Z,6.99
2019-03-02T04:14:44.142Z,6.84
2019-03-02T04:17:11.567Z,7.29
2019-03-02T04:19:39.018Z,7.31
2019-03-02T04:22:07.907Z,7.10
2019-03-02T04:24:34.973Z,7.33
2019-03-02T04:27:02.003Z,6.90
2019-03-02T04:29:29.412Z,7.45
2019-03-02T04:31:56.869Z,7.34
2019-03-02T04:34:24.292Z,7.19
2019-03-02T04:36:51.744Z,7.05
2019-03-02T04:39:19.552Z,6.74
2019-03-02T04:41:47.007Z,7.04
2019-03-02T04:44:14.428Z,7.38
2019-03-02T04:46:41.881Z,7.39
2019-03-02T04:49:10.930Z,7.46
2019-03-02T04:51:38.835Z,7.28
2019-03-02T04:54:05.099Z,7.63
2019-03-02T04:56:32.533Z,7.58
2019-03-02T04:58:59.994Z,7.45
2019-03-02T05:01:29.048Z,7.47
2019-03-02T05:03:57.274Z,7.56
2019-03-02T05:06:24.088Z,7.50
2019-03-02T05:08:51.558Z,7.27
2019-03-02T05:11:19.011Z,7.25
2019-03-02T05:13:46.445Z,7.33
2019-03-02T05:16:13.916Z,7.00
2019-03-02T05:18:41.332Z,6.77
2019-03-02T05:21:08.774Z,6.88
2019-03-02T05:23:36.222Z,6.95
2019-03-02T05:26:03.641Z,6.92
2019-03-02T05:28:31.989Z,7.35
2019-03-02T05:31:02.620Z,7.38
2019-03-02T05:33:28.876Z,7.61
2019-03-02T05:35:55.940Z,7.38
2019-03-02T05:38:23.491Z,7.59
2019-03-02T05:40:50.935Z,7.46
2019-03-02T05:43:18.362Z,7.22
2019-03-02T05:45:45.813Z,7.57
2019-03-02T05:48:13.237Z,7.66
2019-03-02T05:50:40.697Z,7.45
2019-03-02T05:53:08.136Z,7.66
2019-03-02T05:55:36.382Z,7.86
2019-03-02T05:58:06.629Z,7.47
2019-03-02T06:00:37.742Z,7.59
2019-03-02T06:03:01.754Z,7.83
2019-03-02T06:05:29.181Z,7.38
2019-03-02T06:07:57.681Z,7.52
2019-03-02T06:10:25.383Z,7.79
2019-03-02T06:12:52.993Z,7.71
2019-03-02T06:15:19.026Z,7.66
2019-03-02T06:17:47.244Z,7.57
2019-03-02T06:20:14.741Z,7.71
2019-03-02T06:22:42.182Z,7.88
2019-03-02T06:25:19.134Z,7.66
2019-03-02T06:27:43.213Z,7.34
2019-03-02T06:30:17.477Z,7.39
2019-03-02T06:32:46.482Z,7.32
2019-03-02T06:35:14.026Z,7.09
2019-03-02T06:37:41.491Z,7.10
2019-03-02T06:40:09.875Z,7.33
2019-03-02T06:42:37.387Z,7.33
2019-03-02T06:45:05.731Z,7.41
2019-03-02T06:47:33.349Z,7.35
2019-03-02T06:50:00.191Z,7.47
2019-03-02T06:52:27.298Z,7.17
2019-03-02T06:54:54.736Z,7.58
2019-03-02T06:57:22.211Z,7.40
2019-03-02T06:59:49.666Z,7.82
2019-03-02T07:02:17.086Z,7.60
2019-03-02T07:04:44.548Z,7.83
2019-03-02T07:07:12.773Z,7.83
2019-03-02T07:09:41.824Z,7.84
2019-03-02T07:12:09.470Z,7.84
2019-03-02T07:14:35.510Z,7.49
2019-03-02T07:17:02.936Z,7.89
2019-03-02T07:19:33.735Z,8.09
2019-03-02T07:22:01.155Z,8.09
2019-03-02T07:24:29.396Z,8.12
2019-03-02T07:26:56.113Z,8.02
2019-03-02T07:29:24.248Z,8.01
2019-03-02T07:31:51.669Z,8.01
2019-03-02T07:34:19.111Z,8.31
2019-03-02T07:36:46.562Z,8.26
2019-03-02T07:39:13.989Z,8.28
2019-03-02T07:41:43.172Z,8.01
2019-03-02T07:44:10.686Z,8.16
2019-03-02T07:46:38.577Z,8.23
2019-03-02T07:49:09.145Z,8.11
2019-03-02T07:51:33.487Z,7.84
2019-03-02T07:54:02.086Z,7.78
2019-03-02T07:56:29.649Z,8.10
2019-03-02T07:58:57.083Z,8.24
2019-03-02T08:01:24.504Z,7.98
2019-03-02T08:03:51.947Z,7.96
2019-03-02T08:06:22.031Z,7.83
2019-03-02T08:08:49.217Z,7.78
2019-03-02T08:11:14.373Z,7.67
2019-03-02T08:13:41.823Z,7.29
2019-03-02T08:16:11.378Z,7.62
2019-03-02T08:18:39.159Z,7.35
2019-03-02T08:21:06.603Z,7.55
2019-03-02T08:23:34.027Z,7.68
2019-03-02T08:26:01.489Z,8.00
2019-03-02T08:28:28.907Z,7.89
2019-03-02T08:30:56.381Z,7.36
2019-03-02T08:33:23.811Z,8.05
2019-03-02T08:35:51.270Z,7.53
2019-03-02T08:38:18.699Z,7.57
2019-03-02T08:40:46.146Z,7.44
2019-03-02T08:43:16.491Z,7.23
2019-03-02T08:45:41.087Z,7.28
2019-03-02T08:48:08.537Z,7.60
2019-03-02T08:50:35.993Z,7.76
2019-03-02T08:53:03.454Z,7.56
2019-03-02T08:55:33.594Z,7.66
2019-03-02T08:57:58.658Z,7.42
2019-03-02T09:00:25.844Z,7.85
2019-03-02T09:02:55.069Z,7.76
2019-03-02T09:05:25.993Z,7.91
2019-03-02T09:07:49.486Z,7.83
2019-03-02T09:10:16.955Z,7.51
2019-03-02T09:12:44.378Z,7.89
2019-03-02T09:15:25.940Z,8.10
2019-03-02T09:17:50.125Z,8.00
2019-03-02T09:20:17.118Z,8.32
2019-03-02T09:22:44.584Z,8.22
2019-03-02T09:25:20.301Z,8.02
2019-03-02T09:27:48.689Z,8.15
2019-03-02T09:30:16.722Z,7.76
2019-03-02T09:32:47.203Z,8.17
2019-03-02T09:35:12.892Z,8.23
2019-03-02T09:37:40.930Z,8.17
2019-03-02T09:40:10.196Z,8.21
2019-03-02T09:42:40.230Z,8.36
2019-03-02T09:45:03.154Z,8.04
2019-03-02T09:47:30.630Z,8.36
2019-03-02T09:49:58.039Z,8.60
2019-03-02T09:52:25.455Z,8.55
2019-03-02T09:54:54.290Z,8.14
2019-03-02T09:57:21.833Z,8.64
2019-03-02T09:59:49.338Z,8.65
2019-03-02T10:02:16.790Z,8.63
2019-03-02T10:04:44.255Z,8.71
2019-03-02T10:07:11.676Z,8.60
2019-03-02T10:09:39.165Z,8.94
2019-03-02T10:12:09.982Z,8.46
2019-03-02T10:14:35.122Z,8.58
2019-03-02T10:17:01.539Z,8.76
2019-03-02T10:19:29.775Z,8.79
2019-03-02T10:21:56.464Z,8.90
2019-03-02T10:24:25.258Z,9.12
2019-03-02T10:26:52.679Z,9.25
2019-03-02T10:29:20.121Z,9.34
2019-03-02T10:31:47.578Z,9.41
2019-03-02T10:34:15.014Z,8.91
2019-03-02T10:36:42.431Z,9.14
2019-03-02T10:39:09.881Z,8.77
2019-03-02T10:41:37.293Z,8.98
2019-03-02T10:44:04.748Z,8.99
2019-03-02T10:46:32.224Z,9.23
2019-03-02T10:48:59.695Z,8.67
2019-03-02T10:51:27.107Z,9.08
2019-03-02T10:53:55.892Z,8.83
2019-03-02T10:56:24.722Z,8.99
2019-03-02T10:58:50.385Z,8.81
2019-03-02T11:01:17.903Z,8.55
2019-03-02T11:03:45.386Z,8.44
2019-03-02T11:06:14.225Z,8.92
2019-03-02T11:08:45.649Z,9.00
2019-03-02T11:11:16.515Z,9.02
2019-03-02T11:13:45.751Z,9.19
2019-03-02T11:16:24.119Z,9.35
2019-03-02T11:18:57.059Z,9.01
2019-03-02T11:21:40.378Z,9.19
2019-03-02T11:24:11.309Z,9.14
2019-03-02T11:26:39.443Z,9.10
2019-03-02T11:29:06.870Z,9.35
2019-03-02T11:31:34.322Z,9.02
2019-03-02T11:34:01.745Z,9.04
2019-03-02T11:36:32.753Z,9.36
2019-03-02T11:39:17.363Z,9.46
2019-03-02T11:42:03.629Z,9.51
2019-03-02T11:44:33.401Z,9.41
2019-03-02T11:47:06.355Z,9.45
2019-03-02T11:49:34.849Z,9.44
2019-03-02T11:52:07.224Z,9.73
2019-03-02T11:54:35.481Z,9.48
2019-03-02T11:57:08.042Z,9.61
2019-03-02T11:59:35.083Z,9.69
2019-03-02T12:02:15.358Z,9.82
2019-03-02T12:04:36.171Z,10.17
2019-03-02T12:07:09.147Z,10.14
2019-03-02T12:09:39.142Z,10.13
2019-03-02T12:12:06.563Z,10.24
2019-03-02T12:14:34.732Z,10.43
2019-03-02T12:17:17.154Z,10.24
2019-03-02T12:19:56.225Z,10.37
2019-03-02T12:22:23.681Z,10.41
2019-03-02T12:24:58.502Z,10.43
2019-03-02T12:27:38.382Z,10.45
2019-03-02T12:30:27.169Z,10.62
2019-03-02T12:32:53.924Z,10.44
2019-03-02T12:35:26.150Z,10.29
2019-03-02T12:38:07.234Z,10.74
2019-03-02T12:40:49.233Z,10.15
2019-03-02T12:43:31.562Z,10.52
2019-03-02T12:46:16.884Z,10.52
2019-03-02T12:48:43.284Z,10.48
2019-03-02T12:51:16.011Z,10.82
2019-03-02T12:54:04.818Z,10.75
2019-03-02T12:56:38.616Z,11.04
2019-03-02T12:59:06.078Z,10.73
2019-03-02T13:01:37.767Z,11.00
2019-03-02T13:04:09.356Z,10.79
2019-03-02T13:06:37.691Z,11.15
2019-03-02T13:09:05.011Z,11.36
2019-03-02T13:11:36.300Z,11.32
2019-03-02T13:14:10.846Z,11.14
2019-03-02T13:16:40.253Z,11.49
2019-03-02T13:19:28.319Z,11.57
2019-03-02T13:21:58.309Z,11.43
2019-03-02T13:24:26.649Z,11.45
2019-03-02T13:26:54.098Z,11.15
2019-03-02T13:29:27.456Z,11.41
2019-03-02T13:32:06.762Z,11.33
2019-03-02T13:34:47.367Z,10.98
2019-03-02T13:37:11.587Z,11.49
2019-03-02T13:39:47.132Z,11.53
2019-03-02T13:42:27.816Z,11.42
2019-03-02T13:45:00.867Z,11.09
2019-03-02T13:47:34.411Z,10.94
2019-03-02T13:50:02.216Z,10.93
2019-03-02T13:52:31.056Z,11.10
2019-03-02T13:55:13.395Z,10.89
2019-03-02T13:57:45.357Z,11.08
2019-03-02T14:00:13.720Z,11.03
2019-03-02T14:02:43.573Z,11.23
2019-03-02T14:05:12.018Z,10.84
2019-03-02T14:07:52.214Z,11.09
2019-03-02T14:10:26.200Z,10.87
2019-03-02T14:12:56.085Z,10.84
2019-03-02T14:15:35.369Z,10.97
2019-03-02T14:18:24.398Z,11.16
2019-03-02T14:20:52.871Z,11.16
2019-03-02T14:23:26.290Z,11.20
2019-03-02T14:25:56.185Z,11.33
2019-03-02T14:28:21.164Z,11.24
2019-03-02T14:31:05.530Z,11.17
2019-03-02T14:33:36.904Z,10.84
2019-03-02T14:36:04.224Z,11.13
2019-03-02T14:38:33.506Z,10.87
2019-03-02T14:41:04.804Z,11.11
2019-03-02T14:43:36.500Z,10.88
2019-03-02T14:46:06.811Z,11.24
2019-03-02T14:48:34.626Z,10.88
2019-03-02T14:51:07.497Z,10.90
2019-03-02T14:53:49.831Z,10.87
2019-03-02T14:56:22.830Z,10.83
2019-03-02T14:58:50.275Z,10.98
2019-03-02T15:01:36.027Z,10.85
2019-03-02T15:04:15.000Z,10.95
2019-03-02T15:06:48.012Z,10.78
2019-03-02T15:09:17.246Z,10.97
2019-03-02T15:11:50.323Z,10.99
2019-03-02T15:14:18.565Z,10.74
2019-03-02T15:17:03.873Z,10.80
2019-03-02T15:19:34.825Z,10.26
2019-03-02T15:22:04.235Z,10.26
2019-03-02T15:24:31.685Z,10.34
2019-03-02T15:26:59.123Z,10.67
2019-03-02T15:29:27.404Z,10.32
2019-03-02T15:31:59.889Z,10.39
2019-03-02T15:34:49.339Z,10.28
2019-03-02T15:37:15.127Z,10.39
2019-03-02T15:39:43.989Z,10.56
2019-03-02T15:42:12.184Z,10.63
2019-03-02T15:44:43.056Z,10.83
2019-03-02T15:47:10.031Z,10.49
2019-03-02T15:49:40.313Z,10.53
2019-03-02T15:52:17.758Z,10.58
2019-03-02T15:54:50.841Z,10.58
2019-03-02T15:57:20.806Z,10.55
2019-03-02T16:00:06.010Z,10.51
2019-03-02T16:02:47.221Z,10.38
2019-03-02T16:05:20.099Z,10.43
2019-03-02T16:08:00.262Z,10.10
2019-03-02T16:10:45.002Z,10.35
2019-03-02T16:13:20.766Z,10.33
2019-03-02T16:16:06.239Z,9.94
2019-03-02T16:18:49.215Z,10.39
2019-03-02T16:21:19.583Z,10.21
2019-03-02T16:23:47.171Z,9.86
2019-03-02T16:26:28.275Z,9.91
2019-03-02T16:28:57.176Z,9.86
2019-03-02T16:31:29.534Z,10.24
2019-03-02T16:34:13.779Z,10.20
2019-03-02T16:36:43.026Z,10.40
2019-03-02T16:39:28.989Z,9.79
2019-03-02T16:41:57.957Z,9.93
2019-03-02T16:44:40.408Z,10.01
2019-03-02T16:47:25.504Z,10.29
2019-03-02T16:50:08.521Z,9.82
2019-03-02T16:52:42.860Z,10.29
2019-03-02T16:55:10.628Z,10.00
2019-03-02T16:57:42.522Z,10.09
2019-03-02T17:00:19.966Z,10.07
2019-03-02T17:02:53.023Z,9.94
2019-03-02T17:05:20.484Z,9.81
2019-03-02T17:07:49.822Z,9.71
2019-03-02T17:10:23.419Z,9.91
2019-03-02T17:12:51.063Z,10.08
2019-03-02T17:15:28.866Z,10.20
2019-03-02T17:18:03.728Z,10.10
2019-03-02T17:20:39.141Z,10.26
2019-03-02T17:23:10.188Z,10.02
2019-03-02T17:25:45.114Z,9.58
2019-03-02T17:28:12.540Z,9.92
2019-03-02T17:30:44.936Z,9.63
2019-03-02T17:33:16.876Z,10.22
2019-03-02T17:35:49.853Z,9.86
2019-03-02T17:38:22.072Z,9.83
2019-03-02T17:40:50.417Z,9.66
2019-03-02T17:43:21.248Z,9.65
2019-03-02T17:45:54.730Z,9.88
2019-03-02T17:48:28.386Z,9.98
2019-03-02T17:51:13.172Z,9.66
2019-03-02T17:53:55.596Z,9.69
2019-03-02T17:56:24.995Z,9.99
2019-03-02T17:58:55.154Z,9.59
2019-03-02T18:01:38.554Z,9.76
2019-03-02T18:04:11.508Z,9.70
2019-03-02T18:06:55.833Z,9.70
2019-03-02T18:09:24.278Z,9.42
2019-03-02T18:12:10.464Z,9.69
2019-03-02T18:14:53.565Z,9.56
2019-03-02T18:17:21.036Z,9.69
2019-03-02T18:19:48.494Z,9.69
2019-03-02T18:22:15.941Z,9.41
2019-03-02T18:24:43.394Z,9.56
2019-03-02T18:27:10.837Z,9.79
2019-03-02T18:29:38.318Z,9.61
2019-03-02T18:32:05.761Z,9.59
2019-03-02T18:34:33.203Z,9.82
2019-03-02T18:37:00.645Z,9.43
2019-03-02T18:39:28.097Z,9.62
2019-03-02T18:41:55.530Z,9.57
2019-03-02T18:44:23.890Z,9.55
2019-03-02T18:46:53.091Z,9.68
2019-03-02T18:49:22.383Z,9.58
2019-03-02T18:51:50.654Z,9.62
2019-03-02T18:54:18.076Z,9.51
2019-03-02T18:56:45.533Z,9.56
2019-03-02T18:59:13.013Z,9.63
2019-03-02T19:01:40.434Z,9.37
2019-03-02T19:04:07.896Z,9.38
2019-03-02T19:06:35.328Z,9.43
2019-03-02T19:09:02.781Z,9.64
2019-03-02T19:11:30.245Z,9.55
2019-03-02T19:13:57.711Z,9.51
2019-03-02T19:16:25.245Z,9.61
2019-03-02T19:18:52.779Z,9.57
2019-03-02T19:21:20.261Z,9.42
2019-03-02T19:23:47.708Z,9.53
2019-03-02T19:26:15.170Z,9.52
2019-03-02T19:28:42.600Z,9.52
2019-03-02T19:31:10.089Z,9.57
2019-03-02T19:33:37.546Z,9.49
2019-03-02T19:36:04.999Z,9.49
2019-03-02T19:38:32.434Z,9.70
2019-03-02T19:40:59.932Z,9.67
2019-03-02T19:43:33.108Z,9.63
2019-03-02T19:46:02.523Z,9.54
2019-03-02T19:48:28.038Z,9.57
2019-03-02T19:50:56.645Z,9.60
2019-03-02T19:53:24.116Z,9.72
2019-03-02T19:55:51.544Z,9.61
2019-03-02T19:58:18.975Z,9.67
2019-03-02T20:00:46.551Z,9.73
2019-03-02T20:03:13.989Z,9.57
2019-03-02T20:05:41.440Z,9.64
2019-03-02T20:08:08.854Z,9.69
2019-03-02T20:10:36.311Z,9.66
2019-03-02T20:13:03.752Z,9.63
2019-03-02T20:15:31.277Z,9.78
2019-03-02T20:17:58.692Z,9.77
2019-03-02T20:20:26.200Z,9.73
2019-03-02T20:22:53.714Z,9.71
2019-03-02T20:25:21.189Z,9.75
2019-03-02T20:27:48.660Z,9.65
2019-03-02T20:30:16.893Z,10.02
2019-03-02T20:32:44.346Z,9.85
2019-03-02T20:35:12.414Z,9.83
2019-03-02T20:37:40.034Z,9.77
2019-03-02T20:40:08.261Z,9.79
2019-03-02T20:42:35.752Z,9.78
2019-03-02T20:45:03.216Z,9.88
2019-03-02T20:47:30.698Z,9.78
2019-03-02T20:49:58.144Z,9.89
2019-03-02T20:52:26.621Z,9.70
2019-03-02T20:54:54.083Z,9.70
2019-03-02T20:57:21.513Z,9.86
2019-03-02T20:59:48.952Z,9.83
2019-03-02T21:02:16.402Z,9.79
2019-03-02T21:04:43.844Z,9.86
2019-03-02T21:07:11.295Z,9.78
2019-03-02T21:09:40.677Z,9.73
2019-03-02T21:12:06.219Z,9.90
2019-03-02T21:14:33.673Z,9.80
2019-03-02T21:17:01.089Z,9.69
2019-03-02T21:19:28.542Z,9.81
2019-03-02T21:21:56.018Z,9.95
2019-03-02T21:24:23.466Z,9.86
2019-03-02T21:26:50.892Z,9.79
2019-03-02T21:29:18.332Z,9.74
2019-03-02T21:31:45.765Z,9.80
2019-03-02T21:34:13.219Z,9.91
2019-03-02T21:36:40.630Z,9.71
2019-03-02T21:39:08.078Z,9.73
2019-03-02T21:41:36.590Z,9.77
2019-03-02T21:44:04.069Z,9.88
2019-03-02T21:46:31.497Z,9.81
2019-03-02T21:48:58.962Z,9.81
2019-03-02T21:51:26.392Z,9.86
2019-03-02T21:53:53.843Z,9.74
2019-03-02T21:56:21.327Z,9.82
2019-03-02T21:58:48.827Z,9.81
2019-03-02T22:01:16.253Z,9.89
2019-03-02T22:03:43.698Z,9.78
2019-03-02T22:06:11.113Z,9.84
2019-03-02T22:08:38.564Z,9.69
2019-03-02T22:11:07.005Z,9.76
2019-03-02T22:13:34.507Z,9.70
2019-03-02T22:16:03.644Z,9.52
2019-03-02T22:18:31.069Z,9.55
2019-03-02T22:20:58.526Z,9.60
2019-03-02T22:23:26.021Z,9.50
2019-03-02T22:25:53.843Z,9.49
2019-03-02T22:28:22.586Z,9.48
2019-03-02T22:30:50.014Z,9.61
2019-03-02T22:33:17.451Z,9.62
2019-03-02T22:35:44.943Z,9.52
2019-03-02T22:38:12.373Z,9.51
2019-03-02T22:40:39.802Z,9.66
2019-03-02T22:43:07.250Z,9.54
2019-03-02T22:45:34.683Z,9.76
2019-03-02T22:48:02.155Z,9.82
2019-03-02T22:50:30.186Z,9.69
2019-03-02T22:52:57.643Z,9.74
2019-03-02T22:55:25.873Z,9.64
2019-03-02T22:57:53.354Z,9.71
2019-03-02T23:00:38.171Z,9.95
2019-03-02T23:03:06.314Z,9.80
2019-03-02T23:05:33.934Z,9.84
2019-03-02T23:08:01.483Z,9.89
2019-03-02T23:10:29.086Z,9.81
2019-03-02T23:12:56.885Z,9.84
2019-03-02T23:15:25.285Z,10.01
2019-03-02T23:17:52.807Z,9.94
2019-03-02T23:20:20.273Z,9.82
2019-03-02T23:22:47.723Z,9.90
2019-03-02T23:25:15.206Z,9.96
2019-03-02T23:27:42.641Z,9.84
2019-03-02T23:30:18.774Z,9.85
2019-03-02T23:32:46.220Z,9.98
2019-03-02T23:35:13.685Z,9.84
2019-03-02T23:37:41.181Z,9.83
2019-03-02T23:40:11.559Z,9.94
2019-03-02T23:42:39.013Z,10.03
2019-03-02T23:45:07.179Z,9.93
2019-03-02T23:47:34.619Z,9.82
2019-03-02T23:50:02.099Z,9.78
2019-03-02T23:52:29.606Z,9.89
2019-03-02T23:54:57.032Z,9.69
2019-03-02T23:57:24.471Z,9.84
2019-03-02T23:59:51.945Z,9.86
